createdAt,value
2022-11-29T00:00:29.389Z,85.54
2022-11-29T00:02:57.408Z,86.22
2022-11-29T00:05:24.032Z,85.93
2022-11-29T00:07:50.660Z,85.01
2022-11-29T00:10:17.673Z,84.95
2022-11-29T00:12:46.513Z,85.77
2022-11-29T00:15:13.267Z,86.18
2022-11-29T00:17:39.881Z,85.27
2022-11-29T00:20:12.057Z,85.70
2022-11-29T00:22:39.612Z,85.50
2022-11-29T00:25:07.347Z,85.28
2022-11-29T00:27:33.958Z,85.92
2022-11-29T00:30:00.513Z,85.64
2022-11-29T00:32:27.056Z,85.72
2022-11-29T00:34:53.619Z,85.63
2022-11-29T00:37:21.487Z,85.51
2022-11-29T00:39:48.053Z,85.49
2022-11-29T00:42:15.512Z,85.19
2022-11-29T00:44:42.283Z,86.03
2022-11-29T00:47:09.282Z,85.67
2022-11-29T00:49:35.847Z,86.08
2022-11-29T00:52:02.387Z,84.78
2022-11-29T00:54:30.528Z,85.57
2022-11-29T00:56:57.073Z,85.79
2022-11-29T00:59:23.632Z,85.46
2022-11-29T01:01:50.386Z,85.51
2022-11-29T01:04:17.410Z,85.03
2022-11-29T01:06:43.979Z,84.95
2022-11-29T01:09:10.511Z,85.42
2022-11-29T01:11:38.456Z,85.31
2022-11-29T01:14:05.093Z,85.80
2022-11-29T01:16:32.851Z,85.80
2022-11-29T01:19:00.382Z,85.72
2022-11-29T01:21:27.077Z,85.07
2022-11-29T01:23:54.112Z,85.48
2022-11-29T01:26:22.081Z,85.58
2022-11-29T01:28:51.942Z,85.12
2022-11-29T01:31:20.807Z,84.66
2022-11-29T01:33:47.430Z,84.92
2022-11-29T01:36:14.370Z,84.95
2022-11-29T01:38:42.419Z,85.19
2022-11-29T01:41:12.588Z,84.92
2022-11-29T01:43:57.271Z,85.06
2022-11-29T01:46:23.953Z,85.44
2022-11-29T01:48:54.502Z,85.00
2022-11-29T01:51:21.715Z,85.48
2022-11-29T01:53:48.444Z,85.46
2022-11-29T01:56:16.138Z,83.88
2022-11-29T01:58:44.891Z,85.19
2022-11-29T02:01:13.910Z,85.28
2022-11-29T02:03:40.692Z,85.06
2022-11-29T02:06:07.949Z,85.41
2022-11-29T02:08:39.028Z,85.20
2022-11-29T02:11:46.380Z,84.83
2022-11-29T02:14:30.631Z,84.49
2022-11-29T02:17:06.888Z,85.11
2022-11-29T02:20:05.616Z,83.97
2022-11-29T02:22:37.509Z,84.24
2022-11-29T02:25:19.708Z,84.32
2022-11-29T02:28:24.676Z,85.39
2022-11-29T02:31:08.926Z,85.33
2022-11-29T02:33:57.356Z,84.42
2022-11-29T02:36:37.192Z,85.24
2022-11-29T02:39:19.789Z,84.52
2022-11-29T02:42:05.657Z,85.10
2022-11-29T02:44:52.205Z,84.86
2022-11-29T02:47:26.982Z,84.85
2022-11-29T02:50:08.993Z,85.16
2022-11-29T02:52:41.226Z,85.45
2022-11-29T02:55:15.982Z,84.54
2022-11-29T02:57:50.031Z,84.69
2022-11-29T03:00:20.179Z,85.20
2022-11-29T03:02:53.244Z,84.95
2022-11-29T03:05:30.630Z,84.30
2022-11-29T03:08:06.241Z,85.00
2022-11-29T03:10:45.088Z,84.64
2022-11-29T03:13:20.129Z,84.36
2022-11-29T03:15:57.576Z,85.15
2022-11-29T03:18:34.931Z,84.80
2022-11-29T03:21:12.516Z,84.53
2022-11-29T03:23:45.809Z,84.36
2022-11-29T03:26:17.614Z,85.06
2022-11-29T03:28:51.057Z,84.37
2022-11-29T03:31:25.157Z,85.02
2022-11-29T03:33:58.166Z,84.85
2022-11-29T03:36:35.748Z,84.83
2022-11-29T03:39:05.422Z,84.79
2022-11-29T03:41:35.150Z,84.54
2022-11-29T03:44:09.463Z,85.06
2022-11-29T03:46:42.179Z,84.76
2022-11-29T03:49:16.317Z,84.37
2022-11-29T03:51:54.565Z,85.24
2022-11-29T03:54:27.875Z,85.06
2022-11-29T03:56:55.274Z,85.03
2022-11-29T03:59:44.619Z,84.60
2022-11-29T04:02:40.920Z,84.56
2022-11-29T04:05:25.249Z,85.04
2022-11-29T04:08:18.183Z,84.15
2022-11-29T04:11:18.793Z,84.94
2022-11-29T04:14:03.200Z,84.52
2022-11-29T04:17:03.874Z,85.00
2022-11-29T04:20:00.455Z,84.49
2022-11-29T04:23:08.735Z,84.95
2022-11-29T04:25:53.863Z,84.74
2022-11-29T04:28:55.693Z,84.07
2022-11-29T04:31:35.823Z,84.36
2022-11-29T04:34:31.127Z,84.07
2022-11-29T04:37:25.083Z,84.30
2022-11-29T04:40:23.623Z,84.05
2022-11-29T04:43:14.993Z,84.76
2022-11-29T04:46:03.567Z,84.57
2022-11-29T04:48:49.425Z,85.10
2022-11-29T04:51:26.048Z,83.92
2022-11-29T04:53:58.141Z,84.79
2022-11-29T04:56:35.857Z,83.85
2022-11-29T04:59:09.930Z,83.94
2022-11-29T05:01:50.995Z,84.69
2022-11-29T05:04:23.439Z,84.41
2022-11-29T05:07:02.800Z,84.79
2022-11-29T05:09:42.245Z,84.04
2022-11-29T05:12:17.784Z,84.31
2022-11-29T05:15:01.760Z,84.09
2022-11-29T05:17:38.132Z,83.76
2022-11-29T05:20:18.324Z,84.12
2022-11-29T05:23:04.326Z,83.97
2022-11-29T05:25:42.391Z,84.58
2022-11-29T05:28:20.370Z,84.76
2022-11-29T05:31:23.754Z,84.10
2022-11-29T05:34:08.457Z,84.37
2022-11-29T05:36:43.417Z,84.26
2022-11-29T05:39:31.222Z,83.89
2022-11-29T05:42:17.747Z,84.07
2022-11-29T05:44:49.521Z,84.36
2022-11-29T05:47:24.669Z,83.85
2022-11-29T05:50:03.998Z,84.46
2022-11-29T05:52:41.901Z,84.30
2022-11-29T05:55:22.369Z,84.44
2022-11-29T05:57:55.743Z,84.94
2022-11-29T06:00:24.865Z,84.28
2022-11-29T06:02:59.010Z,84.02
2022-11-29T06:05:32.266Z,83.97
2022-11-29T06:08:05.159Z,84.57
2022-11-29T06:10:35.890Z,84.07
2022-11-29T06:13:12.896Z,84.36
2022-11-29T06:16:18.814Z,84.46
2022-11-29T06:19:11.093Z,84.09
2022-11-29T06:21:45.059Z,84.46
2022-11-29T06:24:26.326Z,83.81
2022-11-29T06:27:10.578Z,84.04
2022-11-29T06:29:44.763Z,84.08
2022-11-29T06:32:25.207Z,84.47
2022-11-29T06:34:56.663Z,84.43
2022-11-29T06:37:27.422Z,84.20
2022-11-29T06:39:54.784Z,84.45
2022-11-29T06:42:21.548Z,83.78
2022-11-29T06:44:48.740Z,84.55
2022-11-29T06:47:22.751Z,83.67
2022-11-29T06:49:54.515Z,84.30
2022-11-29T06:52:29.977Z,83.95
2022-11-29T06:55:08.228Z,84.10
2022-11-29T06:57:47.170Z,84.79
2022-11-29T07:00:18.069Z,84.87
2022-11-29T07:02:59.398Z,84.30
2022-11-29T07:05:28.320Z,84.45
2022-11-29T07:07:57.877Z,84.15
2022-11-29T07:10:25.229Z,84.40
2022-11-29T07:12:52.431Z,83.48
2022-11-29T07:15:21.727Z,84.38
2022-11-29T07:18:02.431Z,84.08
2022-11-29T07:20:38.515Z,83.64
2022-11-29T07:23:15.177Z,83.69
2022-11-29T07:25:53.125Z,84.40
2022-11-29T07:28:31.993Z,84.22
2022-11-29T07:31:05.191Z,82.37
2022-11-29T07:33:41.945Z,85.18
2022-11-29T07:36:14.376Z,84.43
2022-11-29T07:38:55.555Z,84.46
2022-11-29T07:41:32.031Z,84.68
2022-11-29T07:44:07.443Z,84.41
2022-11-29T07:46:34.138Z,84.06
2022-11-29T07:49:02.256Z,84.31
2022-11-29T07:51:28.864Z,83.54
2022-11-29T07:53:55.572Z,84.26
2022-11-29T07:56:22.120Z,84.05
2022-11-29T07:58:48.966Z,83.86
2022-11-29T08:01:15.638Z,83.65
2022-11-29T08:03:42.371Z,84.00
2022-11-29T08:06:10.337Z,84.31
2022-11-29T08:08:43.550Z,84.34
2022-11-29T08:11:11.512Z,83.60
2022-11-29T08:13:38.148Z,83.87
2022-11-29T08:16:05.219Z,83.85
2022-11-29T08:18:31.854Z,83.33
2022-11-29T08:20:58.447Z,84.22
2022-11-29T08:23:26.322Z,83.67
2022-11-29T08:25:59.168Z,83.53
2022-11-29T08:28:26.015Z,83.74
2022-11-29T08:31:00.456Z,83.16
2022-11-29T08:33:27.062Z,83.21
2022-11-29T08:35:53.677Z,83.42
2022-11-29T08:38:20.253Z,83.75
2022-11-29T08:40:48.331Z,83.69
2022-11-29T08:43:14.875Z,84.14
2022-11-29T08:45:41.462Z,83.53
2022-11-29T08:48:08.066Z,83.62
2022-11-29T08:50:34.601Z,84.18
2022-11-29T08:53:19.976Z,84.47
2022-11-29T08:55:47.940Z,84.48
2022-11-29T08:58:16.028Z,84.02
2022-11-29T09:00:47.028Z,84.25
2022-11-29T09:03:32.319Z,84.02
2022-11-29T09:05:59.568Z,84.42
2022-11-29T09:08:26.172Z,84.46
2022-11-29T09:10:54.866Z,83.82
2022-11-29T09:13:21.512Z,84.03
2022-11-29T09:15:48.377Z,84.26
2022-11-29T09:18:15.007Z,83.77
2022-11-29T09:20:43.796Z,83.79
2022-11-29T09:23:11.069Z,84.44
2022-11-29T09:25:37.673Z,83.96
2022-11-29T09:28:05.809Z,84.16
2022-11-29T09:30:33.980Z,83.88
2022-11-29T09:33:04.968Z,84.04
2022-11-29T09:35:32.146Z,83.77
2022-11-29T09:37:58.809Z,84.04
2022-11-29T09:40:31.449Z,84.56
2022-11-29T09:43:02.692Z,84.17
2022-11-29T09:45:36.369Z,84.33
2022-11-29T09:48:28.344Z,84.85
2022-11-29T09:51:02.883Z,85.75
2022-11-29T09:53:43.528Z,86.55
2022-11-29T09:56:18.832Z,87.14
2022-11-29T09:58:50.382Z,87.37
2022-11-29T10:01:23.385Z,86.86
2022-11-29T10:03:53.245Z,88.23
2022-11-29T10:06:24.573Z,88.45
2022-11-29T10:08:56.610Z,88.32
2022-11-29T10:11:28.319Z,88.96
2022-11-29T10:13:58.996Z,89.31
2022-11-29T10:16:36.468Z,88.94
2022-11-29T10:19:09.629Z,89.84
2022-11-29T10:21:41.559Z,89.83
2022-11-29T10:24:14.623Z,90.04
2022-11-29T10:26:43.397Z,89.41
2022-11-29T10:29:13.131Z,87.29
2022-11-29T10:31:43.977Z,89.22
2022-11-29T10:34:14.049Z,89.25
2022-11-29T10:36:43.404Z,88.99
2022-11-29T10:39:14.707Z,87.92
2022-11-29T10:41:41.564Z,87.21
2022-11-29T10:44:13.333Z,89.71
2022-11-29T10:46:41.501Z,90.00
2022-11-29T10:49:13.464Z,89.91
2022-11-29T10:51:40.069Z,88.20
2022-11-29T10:54:24.946Z,88.65
2022-11-29T10:56:52.254Z,87.61
2022-11-29T10:59:24.253Z,88.43
2022-11-29T11:01:52.548Z,89.65
2022-11-29T11:04:27.671Z,90.21
2022-11-29T11:07:00.892Z,89.86
2022-11-29T11:09:32.939Z,87.13
2022-11-29T11:12:01.650Z,87.29
2022-11-29T11:14:31.232Z,90.09
2022-11-29T11:17:15.321Z,90.28
2022-11-29T11:19:42.009Z,90.27
2022-11-29T11:22:20.729Z,90.57
2022-11-29T11:24:55.554Z,89.24
2022-11-29T11:27:29.777Z,90.11
2022-11-29T11:29:56.533Z,87.28
2022-11-29T11:32:24.504Z,90.81
2022-11-29T11:34:52.953Z,90.82
2022-11-29T11:37:22.625Z,90.71
2022-11-29T11:39:50.114Z,90.58
2022-11-29T11:42:38.866Z,87.64
2022-11-29T11:45:30.076Z,85.15
2022-11-29T11:47:59.908Z,86.83
2022-11-29T11:50:33.868Z,89.98
2022-11-29T11:53:05.124Z,89.71
2022-11-29T11:55:37.963Z,90.12
2022-11-29T11:58:16.134Z,89.55
2022-11-29T12:01:04.028Z,87.09
2022-11-29T12:03:45.677Z,89.31
2022-11-29T12:06:25.386Z,88.34
2022-11-29T12:08:53.691Z,88.09
2022-11-29T12:11:20.773Z,88.71
2022-11-29T12:13:50.720Z,88.54
2022-11-29T12:16:28.213Z,88.40
2022-11-29T12:19:02.812Z,88.42
2022-11-29T12:21:34.680Z,85.32
2022-11-29T12:24:08.942Z,88.34
2022-11-29T12:29:29.000Z,85.17
2022-11-29T12:32:10.453Z,87.71
2022-11-29T12:34:51.309Z,87.93
2022-11-29T12:37:25.029Z,87.98
2022-11-29T12:39:57.480Z,87.33
2022-11-29T12:42:39.661Z,87.15
2022-11-29T12:45:23.869Z,87.81
2022-11-29T12:47:59.102Z,86.66
2022-11-29T12:50:38.265Z,87.33
2022-11-29T12:53:23.931Z,85.43
2022-11-29T12:56:05.304Z,85.53
2022-11-29T12:58:45.832Z,87.65
2022-11-29T13:01:24.470Z,87.80
2022-11-29T13:04:03.513Z,87.24
2022-11-29T13:06:40.003Z,87.54
2022-11-29T13:09:39.009Z,86.91
2022-11-29T13:12:13.176Z,87.13
2022-11-29T13:14:49.689Z,86.98
2022-11-29T13:17:27.669Z,87.64
2022-11-29T13:19:58.463Z,87.26
2022-11-29T13:22:32.343Z,87.14
2022-11-29T13:25:01.778Z,86.66
2022-11-29T13:27:32.608Z,87.00
2022-11-29T13:30:00.408Z,86.80
2022-11-29T13:32:34.054Z,86.51
2022-11-29T13:35:05.891Z,86.44
2022-11-29T13:37:38.661Z,86.55
2022-11-29T13:40:19.940Z,86.51
2022-11-29T13:42:57.789Z,86.51
2022-11-29T13:45:30.827Z,86.25
2022-11-29T13:47:59.992Z,86.72
2022-11-29T13:50:39.659Z,86.34
2022-11-29T13:53:12.755Z,86.34
2022-11-29T13:55:45.101Z,86.33
2022-11-29T13:58:39.454Z,86.08
2022-11-29T14:01:09.392Z,86.27
2022-11-29T14:03:38.624Z,86.61
2022-11-29T14:06:14.881Z,86.46
2022-11-29T14:09:24.712Z,86.35
2022-11-29T14:12:01.481Z,86.28
2022-11-29T14:14:32.764Z,86.37
2022-11-29T14:17:01.684Z,86.18
2022-11-29T14:19:33.849Z,86.04
2022-11-29T14:22:27.979Z,85.75
2022-11-29T14:25:49.607Z,85.91
2022-11-29T14:28:30.893Z,86.03
2022-11-29T14:30:58.542Z,86.32
2022-11-29T14:33:35.067Z,86.35
2022-11-29T14:36:18.712Z,86.15
2022-11-29T14:38:53.486Z,86.31
2022-11-29T14:41:29.129Z,85.84
2022-11-29T14:44:06.479Z,86.16
2022-11-29T14:46:33.355Z,85.91
2022-11-29T14:49:01.924Z,85.92
2022-11-29T14:51:31.525Z,86.00
2022-11-29T14:54:13.218Z,85.50
2022-11-29T14:56:42.749Z,86.05
2022-11-29T14:59:42.764Z,85.44
2022-11-29T15:02:24.578Z,85.59
2022-11-29T15:04:54.783Z,85.61
2022-11-29T15:07:26.634Z,85.79
2022-11-29T15:09:57.928Z,85.27
2022-11-29T15:12:28.644Z,85.46
2022-11-29T15:15:04.303Z,85.20
2022-11-29T15:17:36.437Z,85.62
2022-11-29T15:20:22.271Z,85.13
2022-11-29T15:22:54.785Z,85.33
2022-11-29T15:25:22.723Z,85.14
2022-11-29T15:27:52.621Z,85.69
2022-11-29T15:30:21.532Z,85.66
2022-11-29T15:32:48.099Z,85.62
2022-11-29T15:35:18.487Z,85.61
2022-11-29T15:37:46.983Z,85.32
2022-11-29T15:40:15.660Z,85.46
2022-11-29T15:42:44.479Z,85.15
2022-11-29T15:45:31.262Z,85.19
2022-11-29T15:48:12.514Z,85.30
2022-11-29T15:50:44.802Z,85.46
2022-11-29T15:53:17.562Z,85.02
2022-11-29T15:55:44.803Z,84.69
2022-11-29T15:58:14.160Z,85.23
2022-11-29T16:00:44.751Z,83.41
2022-11-29T16:03:19.538Z,84.85
2022-11-29T16:05:50.576Z,84.80
2022-11-29T16:08:20.701Z,85.33
2022-11-29T16:10:52.876Z,85.25
2022-11-29T16:13:37.196Z,84.90
2022-11-29T16:16:12.439Z,85.05
2022-11-29T16:18:41.245Z,84.98
2022-11-29T16:21:20.521Z,84.93
2022-11-29T16:23:47.143Z,85.91
2022-11-29T16:26:16.527Z,85.82
2022-11-29T16:28:45.106Z,85.90
2022-11-29T16:31:18.166Z,86.45
2022-11-29T16:33:47.432Z,86.90
2022-11-29T16:36:17.406Z,87.21
2022-11-29T16:38:45.921Z,87.28
2022-11-29T16:41:23.046Z,87.48
2022-11-29T16:43:55.961Z,87.52
2022-11-29T16:46:30.796Z,87.37
2022-11-29T16:49:00.810Z,87.84
2022-11-29T16:51:37.414Z,87.70
2022-11-29T16:54:22.505Z,87.99
2022-11-29T16:56:50.029Z,88.27
2022-11-29T16:59:27.205Z,87.88
2022-11-29T17:01:56.586Z,87.92
2022-11-29T17:04:24.838Z,88.08
2022-11-29T17:06:52.795Z,88.10
2022-11-29T17:09:22.905Z,88.14
2022-11-29T17:11:49.460Z,88.55
2022-11-29T17:14:16.098Z,88.25
2022-11-29T17:16:42.797Z,88.69
2022-11-29T17:19:12.858Z,88.60
2022-11-29T17:21:39.671Z,88.61
2022-11-29T17:24:09.472Z,88.58
2022-11-29T17:26:36.038Z,88.59
2022-11-29T17:29:02.649Z,88.64
2022-11-29T17:31:29.721Z,88.62
2022-11-29T17:33:56.348Z,88.49
2022-11-29T17:36:24.236Z,88.37
2022-11-29T17:38:50.813Z,88.27
2022-11-29T17:41:21.822Z,88.68
2022-11-29T17:43:48.646Z,88.69
2022-11-29T17:46:17.712Z,88.75
2022-11-29T17:48:46.169Z,88.73
2022-11-29T17:51:43.728Z,88.29
2022-11-29T17:54:02.934Z,88.66
2022-11-29T17:56:30.265Z,88.58
2022-11-29T17:58:58.475Z,88.67
2022-11-29T18:01:26.695Z,88.62
2022-11-29T18:03:54.682Z,88.72
2022-11-29T18:06:23.213Z,88.27
2022-11-29T18:08:51.380Z,88.49
2022-11-29T18:11:21.539Z,88.65
2022-11-29T18:13:49.094Z,88.20
2022-11-29T18:16:18.768Z,88.77
2022-11-29T18:18:45.712Z,88.55
2022-11-29T18:21:13.236Z,88.28
2022-11-29T18:23:42.030Z,88.20
2022-11-29T18:26:11.739Z,88.54
2022-11-29T18:28:40.356Z,88.37
2022-11-29T18:31:08.127Z,88.30
2022-11-29T18:33:34.831Z,88.29
2022-11-29T18:36:02.960Z,88.25
2022-11-29T18:38:29.497Z,88.16
2022-11-29T18:40:56.468Z,88.41
2022-11-29T18:43:23.004Z,88.31
2022-11-29T18:45:50.896Z,88.48
2022-11-29T18:48:17.961Z,88.20
2022-11-29T18:50:44.516Z,88.56
2022-11-29T18:53:12.433Z,88.15
2022-11-29T18:55:38.982Z,88.12
2022-11-29T18:58:07.837Z,88.00
2022-11-29T19:00:34.434Z,88.36
2022-11-29T19:03:02.557Z,88.18
2022-11-29T19:05:29.127Z,88.21
2022-11-29T19:07:55.688Z,87.94
2022-11-29T19:10:22.329Z,87.99
2022-11-29T19:12:48.909Z,88.32
2022-11-29T19:15:15.537Z,87.88
2022-11-29T19:17:43.520Z,87.83
2022-11-29T19:20:12.649Z,88.12
2022-11-29T19:22:39.219Z,87.80
2022-11-29T19:25:07.232Z,87.99
2022-11-29T19:27:33.926Z,87.75
2022-11-29T19:30:00.953Z,87.86
2022-11-29T19:32:27.489Z,87.97
2022-11-29T19:34:54.079Z,87.86
2022-11-29T19:37:21.986Z,87.71
2022-11-29T19:39:48.970Z,87.72
2022-11-29T19:42:15.553Z,87.63
2022-11-29T19:45:14.701Z,88.23
2022-11-29T19:47:28.674Z,87.65
2022-11-29T19:50:00.799Z,87.31
2022-11-29T19:52:30.199Z,87.69
2022-11-29T19:54:58.026Z,87.65
2022-11-29T19:57:24.594Z,87.47
2022-11-29T19:59:51.123Z,87.45
2022-11-29T20:02:17.750Z,87.29
2022-11-29T20:04:45.609Z,87.60
2022-11-29T20:07:12.129Z,87.30
2022-11-29T20:09:40.020Z,87.35
2022-11-29T20:12:06.608Z,87.29
2022-11-29T20:14:33.195Z,87.29
2022-11-29T20:16:59.716Z,87.06
2022-11-29T20:19:26.274Z,87.26
2022-11-29T20:21:52.827Z,87.41
2022-11-29T20:24:19.519Z,87.07
2022-11-29T20:26:48.536Z,87.18
2022-11-29T20:29:15.821Z,87.44
2022-11-29T20:31:49.645Z,87.01
2022-11-29T20:34:18.557Z,87.34
2022-11-29T20:37:00.626Z,87.17
2022-11-29T20:39:36.383Z,86.94
2022-11-29T20:42:31.518Z,87.27
2022-11-29T20:44:59.796Z,87.22
2022-11-29T20:47:32.442Z,87.24
2022-11-29T20:49:59.300Z,87.12
2022-11-29T20:52:38.017Z,87.43
2022-11-29T20:55:05.643Z,86.95
2022-11-29T20:57:33.723Z,87.31
2022-11-29T21:00:00.521Z,87.11
2022-11-29T21:02:27.056Z,86.75
2022-11-29T21:04:53.583Z,87.01
2022-11-29T21:07:20.222Z,86.98
2022-11-29T21:09:46.824Z,86.98
2022-11-29T21:12:14.316Z,86.92
2022-11-29T21:14:43.985Z,86.79
2022-11-29T21:17:11.328Z,87.09
2022-11-29T21:19:39.314Z,86.68
2022-11-29T21:22:16.739Z,87.15
2022-11-29T21:24:52.986Z,87.18
2022-11-29T21:27:26.785Z,87.12
2022-11-29T21:29:55.483Z,87.42
2022-11-29T21:32:24.031Z,87.12
2022-11-29T21:34:50.840Z,87.40
2022-11-29T21:37:20.320Z,87.16
2022-11-29T21:39:48.794Z,83.42
2022-11-29T21:42:15.737Z,87.03
2022-11-29T21:44:42.268Z,86.37
2022-11-29T21:47:10.173Z,86.97
2022-11-29T21:49:36.843Z,86.81
2022-11-29T21:52:03.752Z,86.61
2022-11-29T21:54:30.414Z,86.87
2022-11-29T21:56:57.002Z,86.76
2022-11-29T21:59:24.849Z,86.79
2022-11-29T22:01:51.547Z,87.01
2022-11-29T22:04:20.039Z,86.63
2022-11-29T22:06:47.192Z,87.01
2022-11-29T22:09:13.903Z,86.44
2022-11-29T22:11:40.705Z,86.87
2022-11-29T22:14:15.106Z,86.97
2022-11-29T22:16:42.933Z,86.84
2022-11-29T22:19:12.114Z,86.37
2022-11-29T22:21:40.369Z,86.84
2022-11-29T22:24:07.724Z,86.37
2022-11-29T22:26:34.396Z,86.36
2022-11-29T22:29:01.003Z,86.57
2022-11-29T22:31:27.708Z,86.55
2022-11-29T22:33:55.088Z,86.77
2022-11-29T22:36:22.498Z,87.07
2022-11-29T22:38:50.462Z,86.25
2022-11-29T22:41:17.730Z,86.44
2022-11-29T22:43:44.849Z,86.70
2022-11-29T22:46:13.703Z,86.80
2022-11-29T22:48:42.239Z,86.66
2022-11-29T22:51:11.098Z,86.17
2022-11-29T22:53:39.638Z,86.08
2022-11-29T22:56:10.022Z,86.49
2022-11-29T22:58:37.220Z,86.29
2022-11-29T23:01:05.744Z,86.16
2022-11-29T23:03:34.551Z,86.52
2022-11-29T23:06:06.149Z,86.43
2022-11-29T23:08:33.246Z,86.24
2022-11-29T23:11:01.012Z,86.61
2022-11-29T23:13:28.897Z,86.53
2022-11-29T23:15:55.420Z,86.47
2022-11-29T23:18:21.950Z,86.03
2022-11-29T23:20:48.528Z,86.20
2022-11-29T23:23:15.071Z,86.20
2022-11-29T23:25:49.445Z,86.40
2022-11-29T23:28:16.248Z,86.03
2022-11-29T23:30:44.266Z,86.11
2022-11-29T23:33:11.171Z,86.57
2022-11-29T23:35:37.876Z,86.54
2022-11-29T23:38:04.746Z,81.98
2022-11-29T23:40:31.275Z,83.11
2022-11-29T23:42:57.812Z,87.58
2022-11-29T23:45:24.384Z,86.38
2022-11-29T23:47:52.481Z,86.24
2022-11-29T23:50:19.017Z,86.19
2022-11-29T23:52:45.591Z,86.15
2022-11-29T23:55:12.742Z,86.40
2022-11-29T23:57:39.275Z,86.31
